Time;durP1;ratioP1;P1;durP2;ratioP2;P2;SDS_P1;SDS_P2;PMS_P1;PMS_P2;Temp;Humidity;BMP_temperature;BMP_pressure;BME280_temperature;BME280_humidity;BME280_pressure;Samples;Min_cycle;Max_cycle;Signal;HPM_P1;HPM_P2
2021/11/14 00:02:31;;;;;;;32.60;19.17;;;;;;;5.36;100.00;99916.23;1780894;79;20930;-64
2021/11/14 00:05:30;;;;;;;30.20;19.70;;;;;;;5.39;100.00;99915.43;1804948;78;20851;-64
2021/11/14 00:07:56;;;;;;;30.00;20.08;;;;;;;5.38;100.00;99918.89;1817226;78;20946;-64
2021/11/14 00:10:32;;;;;;;33.55;20.65;;;;;;;5.36;100.00;99917.55;1830951;78;21096;-64
2021/11/14 00:13:08;;;;;;;31.97;21.73;;;;;;;5.33;100.00;99919.19;1786793;78;20922;-65
2021/11/14 00:15:59;;;;;;;32.15;19.80;;;;;;;5.31;100.00;99920.88;1789147;80;21441;-66
2021/11/14 00:18:31;;;;;;;29.85;21.00;;;;;;;5.29;100.00;99918.64;1731390;81;21437;-65
2021/11/14 00:21:17;;;;;;;33.13;20.72;;;;;;;5.29;100.00;99925.19;1765672;78;21446;-65
2021/11/14 00:23:49;;;;;;;33.18;20.70;;;;;;;5.25;100.00;99916.37;1794202;80;21291;-65
2021/11/14 00:26:32;;;;;;;30.23;20.48;;;;;;;5.26;100.00;99925.10;1794055;80;21477;-64
2021/11/14 00:29:14;;;;;;;27.80;19.00;;;;;;;5.29;100.00;99925.19;1820469;78;21422;-64
2021/11/14 00:32:10;;;;;;;31.05;20.82;;;;;;;5.35;100.00;99922.31;1789128;80;21443;-65
2021/11/14 00:34:53;;;;;;;32.70;21.10;;;;;;;5.39;100.00;99919.35;1802194;78;20895;-65
2021/11/14 00:37:23;;;;;;;31.90;21.23;;;;;;;5.42;100.00;99917.23;1822047;78;21431;-65
2021/11/14 00:39:56;;;;;;;30.60;20.43;;;;;;;5.43;100.00;99912.05;1752552;80;21484;-64
2021/11/14 00:42:50;;;;;;;28.50;19.60;;;;;;;5.43;100.00;99915.97;1781119;80;20925;-64
2021/11/14 00:45:21;;;;;;;31.37;20.88;;;;;;;5.47;100.00;99913.02;1784076;80;21440;-65
2021/11/14 00:48:07;;;;;;;32.45;21.00;;;;;;;5.45;100.00;99918.20;1809508;79;21351;-64
2021/11/14 00:50:43;;;;;;;28.57;19.62;;;;;;;5.44;100.00;99912.52;1782597;80;21100;-64
2021/11/14 00:53:26;;;;;;;29.75;20.30;;;;;;;5.46;100.00;99916.05;1793914;80;20911;-65
2021/11/14 00:55:57;;;;;;;28.23;20.32;;;;;;;5.47;100.00;99913.02;1783410;80;21399;-64
2021/11/14 00:58:42;;;;;;;27.87;19.70;;;;;;;5.48;100.00;99906.94;1784786;80;22096;-64
2021/11/14 01:01:10;;;;;;;29.50;20.45;;;;;;;5.52;100.00;99910.09;1790278;78;21412;-64
2021/11/14 01:03:45;;;;;;;28.23;19.98;;;;;;;5.51;100.00;99912.25;1760027;81;21434;-64
2021/11/14 01:06:19;;;;;;;28.85;20.15;;;;;;;5.51;100.00;99911.83;1765124;80;20918;-64
2021/11/14 01:09:00;;;;;;;27.15;19.05;;;;;;;5.49;100.00;99911.32;1740786;81;21421;-64
2021/11/14 01:12:06;;;;;;;28.50;19.27;;;;;;;5.48;100.00;99910.44;1780921;79;21462;-64
2021/11/14 01:14:40;;;;;;;26.57;19.27;;;;;;;5.51;100.00;99912.25;1763545;79;20933;-64
2021/11/14 01:17:26;;;;;;;26.82;19.42;;;;;;;5.53;100.00;99908.83;1772987;78;21478;-64
2021/11/14 01:20:10;;;;;;;26.25;19.85;;;;;;;5.55;100.00;99901.02;1710973;82;20923;-64
2021/11/14 01:22:41;;;;;;;29.40;19.60;;;;;;;5.58;100.00;99903.71;1756835;78;21446;-65
2021/11/14 01:25:18;;;;;;;27.02;19.55;;;;;;;5.59;100.00;99901.13;1761485;79;21472;-65
2021/11/14 01:27:57;;;;;;;23.90;18.15;;;;;;;5.62;100.00;99901.63;1739008;81;21444;-65
2021/11/14 01:30:38;;;;;;;26.42;18.92;;;;;;;5.66;100.00;99892.59;1740659;81;21061;-64
2021/11/14 01:33:15;;;;;;;26.33;19.02;;;;;;;5.69;100.00;99902.28;1786678;78;21399;-65
2021/11/14 01:36:20;;;;;;;30.10;19.90;;;;;;;5.70;100.00;99893.58;1787002;79;21473;-64
2021/11/14 01:39:17;;;;;;;28.00;18.52;;;;;;;5.71;100.00;99891.84;1711558;82;20943;-64
2021/11/14 01:44:41;;;;;;;25.35;18.55;;;;;;;5.68;100.00;99888.73;1726072;79;21411;-64
2021/11/14 01:47:13;;;;;;;25.88;19.65;;;;;;;5.69;100.00;99882.66;1787414;80;21465;-64
2021/11/14 01:50:00;;;;;;;;;;;;;;;5.67;100.00;99883.00;1790302;79;20979;-64
2021/11/14 01:53:01;;;;;;;28.73;20.05;;;;;;;5.67;100.00;99882.58;1781362;80;20403;-64
2021/11/14 01:58:14;;;;;;;;;;;;;;;;;;;;;
2021/11/14 02:00:43;;;;;;;26.80;19.07;;;;;;;5.64;100.00;99882.50;1722437;81;20871;-64
2021/11/14 02:03:50;;;;;;;30.82;20.92;;;;;;;5.64;100.00;99879.88;1621007;86;21512;-64
2021/11/14 02:06:21;;;;;;;28.85;20.57;;;;;;;5.64;100.00;99881.62;1696168;83;21457;-64
2021/11/14 02:09:37;;;;;;;;;;;;;;;;;;;;;
2021/11/14 02:12:18;;;;;;;30.17;19.45;;;;;;;5.61;100.00;99877.61;1767267;79;21445;-65
2021/11/14 02:15:05;;;;;;;31.37;20.20;;;;;;;5.61;100.00;99876.31;1739266;81;21508;-65
2021/11/14 02:17:54;;;;;;;28.95;20.08;;;;;;;5.61;100.00;99883.73;1749875;81;21630;-64
2021/11/14 02:20:45;;;;;;;;;;;;;;;;;;;;;
2021/11/14 02:23:23;;;;;;;;;;;;;;;;;;;;;
2021/11/14 02:25:58;;;;;;;29.60;19.87;;;;;;;5.58;100.00;99889.31;1713326;83;21465;-65
2021/11/14 02:31:39;;;;;;;26.33;19.35;;;;;;;5.59;100.00;99888.05;1669317;83;21446;-64
2021/11/14 02:34:13;;;;;;;30.60;21.15;;;;;;;5.61;100.00;99891.59;1773924;79;21416;-65
2021/11/14 02:36:56;;;;;;;30.60;20.90;;;;;;;5.64;100.00;99888.16;1777471;80;21414;-64
2021/11/14 02:40:01;;;;;;;29.07;19.80;;;;;;;5.64;100.00;99886.43;1786466;80;21042;-64
2021/11/14 02:42:39;;;;;;;26.70;20.12;;;;;;;5.65;100.00;99888.20;1738378;80;21427;-65
2021/11/14 02:45:34;;;;;;;28.32;19.60;;;;;;;5.68;100.00;99883.08;1790275;78;21300;-65
2021/11/14 02:48:20;;;;;;;;;;;;;;;5.72;100.00;99885.77;1757010;81;21010;-63
2021/11/14 02:51:14;;;;;;;30.08;19.45;;;;;;;5.74;100.00;99882.34;1750557;81;20448;-64
2021/11/14 02:53:47;;;;;;;29.70;19.48;;;;;;;5.74;100.00;99892.81;1766160;79;21295;-64
2021/11/14 02:59:37;;;;;;;;;;;;;;;;;;;;;
2021/11/14 03:02:21;;;;;;;25.25;18.75;;;;;;;5.75;100.00;99883.23;1627613;87;21517;-63
2021/11/14 03:04:55;;;;;;;25.45;19.17;;;;;;;5.75;100.00;99884.53;1780516;78;21406;-65
2021/11/14 03:07:35;;;;;;;27.05;20.48;;;;;;;5.73;100.00;99883.61;1696642;81;21558;-64
2021/11/14 03:10:15;;;;;;;27.80;19.45;;;;;;;5.72;100.00;99880.11;1709829;82;21432;-64
2021/11/14 03:13:18;;;;;;;30.48;19.62;;;;;;;5.72;100.00;99887.08;1751122;81;21556;-63
2021/11/14 03:15:55;;;;;;;27.60;19.23;;;;;;;5.68;100.00;99884.38;1735389;81;21373;-64
2021/11/14 03:18:47;;;;;;;28.92;19.40;;;;;;;5.65;100.00;99875.11;1743057;81;21436;-64
2021/11/14 03:21:58;;;;;;;29.48;19.07;;;;;;;5.56;100.00;99876.19;1727185;81;21127;-64
2021/11/14 03:25:01;;;;;;;25.15;18.67;;;;;;;5.47;100.00;99871.15;1711163;81;21388;-64
2021/11/14 03:27:23;;;;;;;24.67;18.32;;;;;;;5.44;100.00;99874.57;1663983;82;21577;-65
2021/11/14 03:30:03;;;;;;;27.70;20.35;;;;;;;5.47;100.00;99875.95;1739656;81;20888;-63
2021/11/14 03:32:48;;;;;;;33.92;21.52;;;;;;;5.49;100.00;99869.45;1771323;78;20910;-64
2021/11/14 03:35:19;;;;;;;29.60;20.47;;;;;;;5.49;100.00;99876.88;1772863;79;21098;-63
2021/11/14 03:37:52;;;;;;;32.95;21.15;;;;;;;5.48;100.00;99879.03;1767973;79;20835;-65
2021/11/14 03:40:32;;;;;;;32.00;20.68;;;;;;;5.49;100.00;99876.88;1802405;79;21425;-63
2021/11/14 03:43:19;;;;;;;29.37;19.42;;;;;;;5.50;100.00;99877.34;1802363;78;21381;-63
2021/11/14 03:45:52;;;;;;;32.05;20.82;;;;;;;5.53;100.00;99881.77;1739836;81;21528;-63
2021/11/14 03:48:25;;;;;;;34.98;22.05;;;;;;;5.54;100.00;99880.50;1766538;78;21091;-63
2021/11/14 03:50:56;;;;;;;29.55;21.45;;;;;;;5.54;100.00;99883.54;1774271;79;21383;-63
2021/11/14 03:53:39;;;;;;;31.70;21.80;;;;;;;5.51;100.00;99873.88;1769807;81;20945;-65
2021/11/14 03:56:14;;;;;;;35.20;21.30;;;;;;;5.51;100.00;99879.11;1772234;79;20850;-64
2021/11/14 03:58:49;;;;;;;31.42;20.70;;;;;;;5.51;100.00;99883.04;1708730;82;21480;-64
2021/11/14 04:01:26;;;;;;;36.33;23.05;;;;;;;5.49;100.00;99887.34;1767224;79;21080;-64
2021/11/14 04:03:59;;;;;;;33.23;22.22;;;;;;;5.45;100.00;99875.03;1771184;79;20930;-63
2021/11/14 04:06:34;;;;;;;32.42;21.70;;;;;;;5.40;100.00;99883.19;1776753;79;20891;-65
2021/11/14 04:09:11;;;;;;;33.20;21.50;;;;;;;5.37;100.00;99886.61;1784825;79;21392;-64
2021/11/14 04:11:45;;;;;;;34.70;21.73;;;;;;;5.36;100.00;99891.80;1786026;79;20927;-65
2021/11/14 04:14:31;;;;;;;34.73;22.62;;;;;;;5.34;100.00;99885.64;1780105;80;21406;-64
2021/11/14 04:17:01;;;;;;;37.25;23.25;;;;;;;5.30;100.00;99888.60;1786539;78;20986;-67
2021/11/14 04:22:25;;;;;;;41.10;26.80;;;;;;;5.24;100.00;99896.29;1791468;78;21442;-64
2021/11/14 04:24:42;;;;;;;45.55;27.52;;;;;;;5.24;100.00;99896.71;1780294;79;21458;-64
2021/11/14 04:27:24;;;;;;;41.20;27.00;;;;;;;5.21;100.00;99902.74;1786701;79;21410;-64
2021/11/14 04:29:59;;;;;;;40.03;26.80;;;;;;;5.19;100.00;99904.82;1787662;79;21501;-64
2021/11/14 04:32:32;;;;;;;35.80;24.02;;;;;;;5.15;100.00;99898.62;1787201;79;21446;-64
2021/11/14 04:37:42;;;;;;;32.03;22.58;;;;;;;5.16;100.00;99905.62;1781709;79;21445;-64
2021/11/14 04:40:13;;;;;;;32.15;23.47;;;;;;;5.17;100.00;99896.05;1789780;78;21733;-64
2021/11/14 04:42:45;;;;;;;35.10;22.17;;;;;;;5.17;100.00;99902.59;1787521;79;21442;-64
2021/11/14 04:45:15;;;;;;;;;;;;;;;5.16;100.00;99902.13;1788720;78;21553;-65
2021/11/14 04:47:44;;;;;;;30.65;22.10;;;;;;;5.18;100.00;99906.97;1787343;79;20457;-64
2021/11/14 04:50:19;;;;;;;33.65;23.65;;;;;;;5.17;100.00;99911.31;1787408;78;21469;-63
2021/11/14 04:52:53;;;;;;;33.90;24.15;;;;;;;5.15;100.00;99905.58;1786953;79;21163;-63
2021/11/14 04:55:22;;;;;;;37.00;23.60;;;;;;;5.14;100.00;99907.31;1787489;79;20914;-64
2021/11/14 04:57:59;;;;;;;30.47;23.07;;;;;;;5.11;100.00;99907.65;1787752;79;21457;-64
2021/11/14 05:00:39;;;;;;;31.65;23.00;;;;;;;5.11;100.00;99922.03;1789681;78;20859;-63
2021/11/14 05:03:19;;;;;;;35.08;25.02;;;;;;;5.11;100.00;99920.72;1787915;78;21415;-64
2021/11/14 05:05:58;;;;;;;34.33;24.52;;;;;;;5.10;100.00;99917.64;1759252;81;21415;-63
2021/11/14 05:08:38;;;;;;;34.83;23.60;;;;;;;5.10;100.00;99921.14;1786393;77;20906;-67
2021/11/14 05:11:11;;;;;;;35.92;23.73;;;;;;;5.11;100.00;99933.37;1798427;78;21428;-64
2021/11/14 05:13:41;;;;;;;35.15;24.87;;;;;;;5.17;100.00;99944.44;1796885;79;20842;-62
2021/11/14 05:16:10;;;;;;;33.28;24.25;;;;;;;5.15;100.00;99942.20;1787305;79;20941;-63
2021/11/14 05:18:39;;;;;;;40.45;26.07;;;;;;;5.15;100.00;99940.47;1759922;81;21100;-63
2021/11/14 05:21:16;;;;;;;;;;;;;;;5.17;100.00;99941.39;1794282;78;20970;-63
2021/11/14 05:23:52;;;;;;;42.48;29.07;;;;;;;5.21;100.00;99950.25;1742618;81;20402;-62
2021/11/14 05:26:38;;;;;;;44.73;29.45;;;;;;;5.24;100.00;99947.72;1787578;78;20925;-63
2021/11/14 05:29:06;;;;;;;50.73;32.00;;;;;;;5.25;100.00;99942.95;1759739;80;21419;-65
2021/11/14 05:31:35;;;;;;;54.08;32.60;;;;;;;5.26;100.00;99946.91;1789547;79;21089;-63
2021/11/14 05:34:05;;;;;;;46.23;29.80;;;;;;;5.25;100.00;99944.25;1775119;78;20907;-63
2021/11/14 05:36:40;;;;;;;45.43;29.27;;;;;;;5.27;100.00;99949.11;1820190;78;20987;-63
2021/11/14 05:39:08;;;;;;;57.30;32.45;;;;;;;5.30;100.00;99954.42;1819497;78;21446;-63
2021/11/14 05:41:38;;;;;;;55.25;34.03;;;;;;;5.34;100.00;99961.09;1800186;78;21038;-64
2021/11/14 05:44:07;;;;;;;55.28;34.85;;;;;;;5.36;100.00;99958.09;1787345;79;21096;-63
2021/11/14 05:46:38;;;;;;;83.87;41.02;;;;;;;5.38;100.00;99954.20;1787778;78;21450;-63
2021/11/14 05:49:14;;;;;;;71.95;42.85;;;;;;;5.40;100.00;99954.25;1786796;79;20887;-64
2021/11/14 05:51:44;;;;;;;83.20;48.58;;;;;;;5.43;100.00;99966.11;1789762;78;21426;-63
2021/11/14 05:54:16;;;;;;;81.92;48.23;;;;;;;5.43;100.00;99954.33;1787373;79;21419;-64
2021/11/14 05:56:45;;;;;;;70.90;42.55;;;;;;;5.45;100.00;99964.42;1787540;80;21078;-63
2021/11/14 05:59:40;;;;;;;55.58;34.48;;;;;;;5.46;100.00;99966.19;1799612;79;20867;-63
2021/11/14 06:02:12;;;;;;;52.65;31.27;;;;;;;5.45;100.00;99971.84;1818327;78;21465;-63
2021/11/14 06:04:49;;;;;;;57.83;32.48;;;;;;;5.50;100.00;99978.52;1818407;78;20923;-65
2021/11/14 06:07:09;;;;;;;47.83;30.88;;;;;;;5.52;100.00;99978.13;1815331;78;20840;-63
2021/11/14 06:09:47;;;;;;;47.67;30.00;;;;;;;5.53;100.00;99980.79;1817519;79;21441;-63
2021/11/14 06:12:25;;;;;;;41.70;28.32;;;;;;;5.54;100.00;99972.52;1819484;78;20868;-63
2021/11/14 06:14:51;;;;;;;43.13;29.85;;;;;;;5.57;100.00;99973.48;1819449;78;21403;-63
2021/11/14 06:17:40;;;;;;;46.30;30.70;;;;;;;5.59;100.00;99980.95;1789842;79;20920;-63
2021/11/14 06:20:06;;;;;;;48.05;31.00;;;;;;;5.61;100.00;99980.58;1776985;78;21043;-62
2021/11/14 06:22:37;;;;;;;53.87;32.45;;;;;;;5.62;100.00;99980.16;1754556;80;21520;-63
2021/11/14 06:25:11;;;;;;;49.77;31.70;;;;;;;5.57;100.00;99987.88;1770138;78;20923;-62
2021/11/14 06:27:46;;;;;;;48.10;32.08;;;;;;;5.56;100.00;99986.11;1789805;79;23546;-63
2021/11/14 06:30:17;;;;;;;88.67;37.08;;;;;;;5.59;100.00;99987.50;1819437;78;21445;-63
2021/11/14 06:32:50;;;;;;;57.85;36.48;;;;;;;5.60;100.00;99984.03;1796403;78;21472;-63
2021/11/14 06:35:18;;;;;;;59.48;38.23;;;;;;;5.61;100.00;99988.42;1832589;76;21076;-63
2021/11/14 06:37:46;;;;;;;61.58;36.85;;;;;;;5.60;100.00;99981.42;1757683;80;20978;-63
2021/11/14 06:40:21;;;;;;;60.90;34.08;;;;;;;5.63;100.00;99980.19;1803664;78;20883;-64
2021/11/14 06:42:53;;;;;;;60.43;34.80;;;;;;;5.65;100.00;99981.13;1784889;78;21452;-64
2021/11/14 06:45:21;;;;;;;68.92;35.10;;;;;;;5.67;100.00;99978.13;1818756;78;21418;-63
2021/11/14 06:47:49;;;;;;;58.28;36.83;;;;;;;5.68;100.00;99975.11;1808632;78;21141;-64
2021/11/14 06:50:18;;;;;;;52.80;32.95;;;;;;;5.69;100.00;99979.08;1807895;78;20927;-62
2021/11/14 06:52:46;;;;;;;47.08;32.28;;;;;;;5.70;100.00;99976.04;1780711;78;20930;-65
2021/11/14 06:55:15;;;;;;;48.10;30.50;;;;;;;5.75;100.00;99977.47;1796857;78;20903;-63
2021/11/14 06:57:45;;;;;;;49.63;30.62;;;;;;;5.74;100.00;99971.34;1791758;78;20898;-64
2021/11/14 07:00:23;;;;;;;45.70;30.02;;;;;;;5.74;100.00;99966.53;1822827;78;21076;-66
2021/11/14 07:02:50;;;;;;;43.48;28.77;;;;;;;5.75;100.00;99967.88;1802360;78;21402;-64
2021/11/14 07:05:18;;;;;;;47.50;29.57;;;;;;;5.76;100.00;99968.77;1782488;78;20919;-63
2021/11/14 07:07:48;;;;;;;43.95;28.10;;;;;;;5.74;100.00;99961.30;1792933;78;20911;-66
2021/11/14 07:10:17;;;;;;;47.20;29.48;;;;;;;5.76;100.00;99967.45;1783214;78;20851;-63
2021/11/14 07:12:47;;;;;;;45.65;31.07;;;;;;;5.77;100.00;99961.38;1786738;79;21476;-64
2021/11/14 07:15:15;;;;;;;43.13;28.47;;;;;;;5.80;100.00;99970.62;1798927;78;20889;-62
2021/11/14 07:17:44;;;;;;;44.67;29.60;;;;;;;5.78;100.00;99965.34;1809581;77;20856;-63
2021/11/14 07:20:13;;;;;;;53.17;31.50;;;;;;;5.80;100.00;99962.34;1805463;78;20919;-63
2021/11/14 07:22:42;;;;;;;50.67;32.63;;;;;;;5.83;100.00;99964.16;1761807;79;21486;-63
2021/11/14 07:25:15;;;;;;;55.83;32.88;;;;;;;5.84;100.00;99960.27;1806546;78;21083;-62
2021/11/14 07:27:43;;;;;;;52.27;33.35;;;;;;;5.86;100.00;99968.16;1767802;79;21473;-63
2021/11/14 07:30:11;;;;;;;52.83;33.63;;;;;;;5.87;100.00;99974.74;1796050;78;20946;-63
2021/11/14 07:32:43;;;;;;;56.73;36.38;;;;;;;5.89;100.00;99957.77;1783523;78;21631;-63
2021/11/14 07:35:13;;;;;;;63.30;35.88;;;;;;;5.90;100.00;99959.56;1784828;78;20986;-63
2021/11/14 07:37:43;;;;;;;48.25;32.33;;;;;;;5.91;100.00;99960.03;1797332;78;21718;-63
2021/11/14 07:40:14;;;;;;;47.00;30.80;;;;;;;5.88;100.00;99955.56;1810023;78;20909;-62
2021/11/14 07:42:44;;;;;;;50.78;30.85;;;;;;;5.88;100.00;99960.80;1808225;78;20919;-63
2021/11/14 07:45:17;;;;;;;49.53;30.60;;;;;;;5.89;100.00;99963.92;1772978;78;20962;-63
2021/11/14 07:47:48;;;;;;;47.05;32.38;;;;;;;5.90;100.00;99977.47;1773364;78;20894;-63
2021/11/14 07:50:18;;;;;;;50.67;32.98;;;;;;;5.91;100.00;99975.31;1782914;78;21841;-62
2021/11/14 07:52:47;;;;;;;42.00;29.92;;;;;;;5.91;100.00;99975.31;1779860;79;26574;-64
2021/11/14 07:55:15;;;;;;;42.55;29.50;;;;;;;5.94;100.00;99968.84;1773092;78;20986;-63
2021/11/14 07:57:43;;;;;;;46.80;28.87;;;;;;;5.97;100.00;99983.33;1789088;78;21529;-63
2021/11/14 08:00:18;;;;;;;43.25;29.57;;;;;;;5.98;100.00;99973.73;1812062;78;20959;-63
2021/11/14 08:02:46;;;;;;;45.23;31.90;;;;;;;6.02;100.00;99977.31;1793928;78;21751;-63
2021/11/14 08:05:15;;;;;;;47.70;32.20;;;;;;;6.04;100.00;99981.75;1788248;78;20985;-63
2021/11/14 08:07:45;;;;;;;45.05;30.57;;;;;;;6.09;100.00;99978.81;1809277;78;21026;-63
2021/11/14 08:10:13;;;;;;;45.75;31.27;;;;;;;6.15;100.00;99982.94;1789220;78;21396;-63
2021/11/14 08:12:42;;;;;;;49.93;29.50;;;;;;;6.20;100.00;99984.36;1770941;78;21454;-61
2021/11/14 08:15:10;;;;;;;50.35;31.85;;;;;;;6.22;100.00;99980.04;1820698;78;21415;-63
2021/11/14 08:17:38;;;;;;;44.60;30.82;;;;;;;6.23;100.00;99986.63;1792748;78;20883;-64
2021/11/14 08:20:10;;;;;;;43.90;29.50;;;;;;;6.24;100.00;99987.09;1780988;80;21439;-64
2021/11/14 08:22:39;;;;;;;70.35;31.10;;;;;;;6.28;100.00;99990.67;1784457;78;21484;-65
2021/11/14 08:25:08;;;;;;;53.28;33.23;;;;;;;6.29;100.00;99993.75;1799427;78;20884;-63
2021/11/14 08:27:37;;;;;;;47.15;31.12;;;;;;;6.31;100.00;99987.70;1766421;78;21033;-62
2021/11/14 08:30:08;;;;;;;44.53;29.65;;;;;;;6.35;100.00;99989.08;1792206;78;20844;-63
2021/11/14 08:32:36;;;;;;;42.23;27.52;;;;;;;6.36;100.00;99993.47;1820648;78;21399;-62
2021/11/14 08:35:05;;;;;;;43.30;29.40;;;;;;;6.40;100.00;99986.14;1824467;78;20872;-63
2021/11/14 08:37:34;;;;;;;40.52;27.87;;;;;;;6.41;100.00;99982.25;1824290;78;20956;-63
2021/11/14 08:40:06;;;;;;;45.12;30.12;;;;;;;6.41;100.00;99982.25;1807252;78;21391;-63
2021/11/14 08:42:34;;;;;;;44.60;28.47;;;;;;;6.40;100.00;99975.23;1762466;80;20914;-63
2021/11/14 08:45:03;;;;;;;41.77;27.45;;;;;;;6.41;100.00;99969.57;1762753;80;21498;-63
2021/11/14 08:47:31;;;;;;;43.48;29.82;;;;;;;6.45;100.00;99968.79;1763091;80;20915;-63
2021/11/14 08:49:59;;;;;;;42.90;29.12;;;;;;;6.50;100.00;99963.23;1763107;78;20856;-63
2021/11/14 08:52:28;;;;;;;118.40;35.25;;;;;;;6.55;100.00;99963.80;1762886;81;21782;-63
2021/11/14 08:54:56;;;;;;;48.65;29.25;;;;;;;6.59;100.00;99962.13;1762443;81;20855;-63
2021/11/14 08:57:23;;;;;;;40.28;28.70;;;;;;;6.62;100.00;99960.89;1762830;81;20903;-63
2021/11/14 08:59:51;;;;;;;42.38;27.90;;;;;;;6.68;100.00;99960.17;1771071;79;20996;-64
2021/11/14 09:02:22;;;;;;;42.13;28.23;;;;;;;6.72;100.00;99966.83;1787757;78;21091;-63
2021/11/14 09:04:50;;;;;;;37.75;27.25;;;;;;;6.78;100.00;99964.34;1793049;79;21151;-65
2021/11/14 09:07:20;;;;;;;48.17;28.60;;;;;;;6.81;100.00;99964.83;1792592;78;20943;-62
2021/11/14 09:09:48;;;;;;;46.55;26.95;;;;;;;6.84;100.00;99960.54;1791806;78;20865;-62
2021/11/14 09:12:18;;;;;;;41.90;24.95;;;;;;;6.89;100.00;99962.83;1792373;79;21394;-63
2021/11/14 09:14:46;;;;;;;39.73;26.17;;;;;;;6.93;100.00;99958.11;1782600;79;20888;-63
2021/11/14 09:17:13;;;;;;;42.40;26.82;;;;;;;6.98;100.00;99958.63;1792826;78;21095;-63
2021/11/14 09:19:41;;;;;;;37.78;27.30;;;;;;;7.01;100.00;99956.08;1792844;79;20899;-64
2021/11/14 09:22:10;;;;;;;40.70;26.37;;;;;;;7.04;100.00;99945.64;1783136;79;20987;-63
2021/11/14 09:24:38;;;;;;;54.95;26.75;;;;;;;7.05;100.00;99948.30;1797505;79;20903;-64
2021/11/14 09:27:07;;;;;;;36.85;24.75;;;;;;;7.07;100.00;99948.33;1788238;78;20891;-64
2021/11/14 09:29:38;;;;;;;38.88;25.23;;;;;;;7.09;100.00;99949.25;1787963;79;21784;-63
2021/11/14 09:32:11;;;;;;;34.78;25.48;;;;;;;7.12;100.00;99949.34;1786109;79;20911;-63
2021/11/14 09:34:37;;;;;;;38.63;25.05;;;;;;;7.15;100.00;99954.66;1784866;79;20883;-62
2021/11/14 09:37:06;;;;;;;41.02;25.37;;;;;;;7.17;100.00;99952.52;1789683;78;21450;-63
2021/11/14 09:39:34;;;;;;;48.65;25.57;;;;;;;7.18;100.00;99937.23;1799975;78;21440;-64
2021/11/14 09:42:04;;;;;;;41.02;26.15;;;;;;;7.24;100.00;99943.02;1790797;79;21238;-67
2021/11/14 09:44:34;;;;;;;52.27;25.97;;;;;;;7.28;100.00;99942.23;1793060;79;20884;-64
2021/11/14 09:47:03;;;;;;;73.85;27.77;;;;;;;7.31;100.00;99932.22;1798895;79;20856;-64
2021/11/14 09:49:34;;;;;;;46.25;28.38;;;;;;;7.33;100.00;99934.45;1796607;78;20919;-64
2021/11/14 09:52:07;;;;;;;38.67;27.05;;;;;;;7.33;100.00;99927.45;1793935;79;21384;-63
2021/11/14 09:54:36;;;;;;;39.42;26.02;;;;;;;7.32;100.00;99934.88;1796398;79;21049;-63
2021/11/14 09:57:07;;;;;;;43.00;25.50;;;;;;;7.34;100.00;99927.03;1799051;79;20864;-64
2021/11/14 09:59:35;;;;;;;43.90;26.87;;;;;;;7.39;100.00;99932.82;1822613;78;20828;-64
2021/11/14 10:02:03;;;;;;;41.30;26.12;;;;;;;7.40;100.00;99930.66;1824069;78;21584;-66
2021/11/14 10:04:32;;;;;;;44.58;27.60;;;;;;;7.41;100.00;99926.29;1807265;78;20927;-64
2021/11/14 10:07:08;;;;;;;40.30;27.20;;;;;;;7.40;100.00;99928.03;1778964;78;21059;-64
2021/11/14 10:09:39;;;;;;;43.65;26.65;;;;;;;7.40;100.00;99922.78;1774298;78;21419;-65
2021/11/14 10:12:32;;;;;;;57.20;26.07;;;;;;;7.44;100.00;99923.72;1813618;79;20927;-66
2021/11/14 10:15:18;;;;;;;41.30;27.02;;;;;;;7.46;100.00;99920.70;1813160;79;20888;-63
2021/11/14 10:17:54;;;;;;;46.05;27.17;;;;;;;7.50;100.00;99927.34;1813647;78;21382;-66
2021/11/14 10:20:28;;;;;;;45.17;28.60;;;;;;;7.51;100.00;99923.86;1798010;78;21141;-65
2021/11/14 10:23:00;;;;;;;47.00;26.35;;;;;;;7.49;100.00;99928.20;1792557;79;21775;-69
2021/11/14 10:25:31;;;;;;;40.95;27.98;;;;;;;7.48;100.00;99918.98;1784906;79;20848;-65
2021/11/14 10:28:04;;;;;;;63.33;27.82;;;;;;;7.50;100.00;99930.40;1790729;79;20937;-65
2021/11/14 10:30:39;;;;;;;39.88;25.72;;;;;;;7.52;100.00;99920.81;1789784;78;20945;-64
2021/11/14 10:33:10;;;;;;;44.35;29.45;;;;;;;7.53;100.00;99914.27;1775427;80;21391;-65
2021/11/14 10:35:39;;;;;;;47.35;30.05;;;;;;;7.54;100.00;99912.10;1796917;79;20884;-66
2021/11/14 10:38:13;;;;;;;49.63;30.17;;;;;;;7.55;100.00;99912.56;1811888;79;20881;-64
2021/11/14 10:40:48;;;;;;;45.12;27.82;;;;;;;7.56;100.00;99913.02;1788324;79;20928;-65
2021/11/14 10:43:21;;;;;;;43.20;28.52;;;;;;;7.57;100.00;99910.88;1792531;79;20928;-65
2021/11/14 10:45:46;;;;;;;47.43;28.00;;;;;;;7.58;100.00;99908.70;1786195;79;21793;-63
2021/11/14 10:48:16;;;;;;;41.68;28.77;;;;;;;7.58;100.00;99902.58;1787925;79;20975;-65
2021/11/14 10:50:46;;;;;;;49.00;31.00;;;;;;;7.59;100.00;99899.09;1802478;79;20960;-66
2021/11/14 10:53:17;;;;;;;40.40;27.30;;;;;;;7.57;100.00;99891.61;1793794;79;20971;-65
2021/11/14 10:55:52;;;;;;;41.58;27.30;;;;;;;7.56;100.00;99893.33;1780717;80;20913;-66
2021/11/14 10:58:24;;;;;;;42.65;27.60;;;;;;;7.57;100.00;99886.37;1792848;79;21105;-67
2021/11/14 11:00:55;;;;;;;39.83;26.82;;;;;;;7.60;100.00;99892.09;1796637;79;21441;-65
2021/11/14 11:03:23;;;;;;;68.57;32.03;;;;;;;7.63;100.00;99897.41;1781835;79;20897;-65
2021/11/14 11:05:52;;;;;;;45.73;29.25;;;;;;;7.63;100.00;99890.41;1813410;79;20991;-67
2021/11/14 11:08:22;;;;;;;74.37;30.57;;;;;;;7.62;100.00;99888.64;1760260;80;20919;-65
2021/11/14 11:11:00;;;;;;;47.03;24.52;;;;;;;7.61;100.00;99896.49;1776513;78;21068;-65
2021/11/14 11:13:43;;;;;;;41.33;27.58;;;;;;;7.62;100.00;99890.38;1748487;81;20843;-65
2021/11/14 11:16:16;;;;;;;41.20;25.97;;;;;;;7.61;100.00;99889.50;1756681;80;20939;-64
2021/11/14 11:18:44;;;;;;;42.55;26.82;;;;;;;7.62;100.00;99881.19;1760043;80;21002;-65
2021/11/14 11:21:14;;;;;;;36.90;24.85;;;;;;;7.63;100.00;99886.47;1758857;80;21423;-67
2021/11/14 11:23:45;;;;;;;35.23;22.55;;;;;;;7.64;100.00;99879.48;1754070;81;21184;-62
2021/11/14 11:26:15;;;;;;;37.53;22.60;;;;;;;7.65;100.00;99879.93;1752883;80;20947;-66
2021/11/14 11:28:45;;;;;;;32.83;20.55;;;;;;;7.66;100.00;99876.45;1752809;79;20941;-65
2021/11/14 11:31:19;;;;;;;33.00;20.85;;;;;;;7.69;100.00;99876.50;1750026;79;20890;-67
2021/11/14 11:33:50;;;;;;;37.17;21.97;;;;;;;7.69;100.00;99880.02;1752951;79;21403;-65
2021/11/14 11:36:18;;;;;;;40.10;20.77;;;;;;;7.71;100.00;99869.53;1753380;79;21088;-66
2021/11/14 11:38:46;;;;;;;31.12;19.50;;;;;;;7.72;100.00;99873.92;1745963;81;20874;-65
2021/11/14 11:41:18;;;;;;;40.43;21.07;;;;;;;7.76;100.00;99872.69;1752504;79;20957;-67
2021/11/14 11:43:45;;;;;;;31.00;20.08;;;;;;;7.79;100.00;99867.91;1752167;81;20902;-66
2021/11/14 11:46:16;;;;;;;30.35;20.08;;;;;;;7.80;100.00;99853.50;1748064;80;21462;-66
2021/11/14 11:48:47;;;;;;;32.60;20.23;;;;;;;7.83;100.00;99852.23;1755203;81;21078;-64
2021/11/14 11:51:36;;;;;;;34.65;21.15;;;;;;;7.86;100.00;99852.70;1751159;81;20906;-64
2021/11/14 11:54:16;;;;;;;35.28;21.93;;;;;;;7.88;100.00;99859.75;1752384;81;21389;-65
2021/11/14 11:56:48;;;;;;;29.30;19.37;;;;;;;7.91;100.00;99864.17;1751633;79;20878;-66
2021/11/14 11:59:22;;;;;;;42.25;20.43;;;;;;;7.92;100.00;99859.38;1751438;79;21445;-63
2021/11/14 12:01:53;;;;;;;30.75;21.25;;;;;;;7.95;100.00;99859.84;1755015;79;21088;-64
2021/11/14 12:04:32;;;;;;;28.60;19.92;;;;;;;7.95;100.00;99862.48;1740976;81;20906;-66
2021/11/14 12:07:14;;;;;;;28.87;20.17;;;;;;;7.95;100.00;99860.73;1737897;81;20939;-69
2021/11/14 12:09:50;;;;;;;35.17;22.87;;;;;;;7.92;100.00;99869.88;1773659;79;20922;-64
2021/11/14 12:12:25;;;;;;;39.73;24.72;;;;;;;7.92;100.00;99868.99;1811720;78;20916;-63
2021/11/14 12:15:14;;;;;;;55.65;32.73;;;;;;;7.92;100.00;99870.31;1820333;78;21104;-62
2021/11/14 12:18:01;;;;;;;43.17;27.13;;;;;;;7.93;100.00;99871.64;1820170;78;20936;-62